sensor_id;sensor_type;location;lat;lon;timestamp;P1;durP1;ratioP1;P2;durP2;ratioP2
25163;SDS011;13440;50.860;13.662;2024-03-02T00:02:23;69.63;;;46.58;;
25163;SDS011;13440;50.860;13.662;2024-03-02T00:04:48;70.47;;;45.57;;
25163;SDS011;13440;50.860;13.662;2024-03-02T00:07:14;66.53;;;43.58;;
25163;SDS011;13440;50.860;13.662;2024-03-02T00:09:39;60.97;;;41.83;;
25163;SDS011;13440;50.860;13.662;2024-03-02T00:12:04;65.88;;;43.63;;
25163;SDS011;13440;50.860;13.662;2024-03-02T00:14:30;58.92;;;40.17;;
25163;SDS011;13440;50.860;13.662;2024-03-02T00:16:55;55.63;;;40.57;;
25163;SDS011;13440;50.860;13.662;2024-03-02T00:19:20;66.90;;;44.10;;
25163;SDS011;13440;50.860;13.662;2024-03-02T00:21:46;73.50;;;45.80;;
25163;SDS011;13440;50.860;13.662;2024-03-02T00:24:21;70.13;;;45.23;;
25163;SDS011;13440;50.860;13.662;2024-03-02T00:26:47;72.53;;;44.17;;
25163;SDS011;13440;50.860;13.662;2024-03-02T00:29:12;78.35;;;46.33;;
25163;SDS011;13440;50.860;13.662;2024-03-02T00:31:40;77.00;;;46.83;;
25163;SDS011;13440;50.860;13.662;2024-03-02T00:34:05;88.15;;;50.20;;
25163;SDS011;13440;50.860;13.662;2024-03-02T00:36:31;85.50;;;48.40;;
25163;SDS011;13440;50.860;13.662;2024-03-02T00:38:56;90.80;;;50.90;;
25163;SDS011;13440;50.860;13.662;2024-03-02T00:41:29;76.70;;;45.60;;
25163;SDS011;13440;50.860;13.662;2024-03-02T00:43:58;89.97;;;51.17;;
25163;SDS011;13440;50.860;13.662;2024-03-02T00:46:24;79.03;;;46.85;;
25163;SDS011;13440;50.860;13.662;2024-03-02T00:48:56;91.78;;;52.35;;
25163;SDS011;13440;50.860;13.662;2024-03-02T00:51:22;94.72;;;51.30;;
25163;SDS011;13440;50.860;13.662;2024-03-02T00:53:48;100.13;;;51.63;;
25163;SDS011;13440;50.860;13.662;2024-03-02T00:56:13;96.03;;;50.75;;
25163;SDS011;13440;50.860;13.662;2024-03-02T00:58:39;97.30;;;50.53;;
25163;SDS011;13440;50.860;13.662;2024-03-02T01:01:05;93.15;;;49.78;;
25163;SDS011;13440;50.860;13.662;2024-03-02T01:03:31;96.75;;;50.83;;
25163;SDS011;13440;50.860;13.662;2024-03-02T01:05:56;97.90;;;52.80;;
25163;SDS011;13440;50.860;13.662;2024-03-02T01:08:21;95.30;;;49.10;;
25163;SDS011;13440;50.860;13.662;2024-03-02T01:10:47;101.63;;;51.03;;
25163;SDS011;13440;50.860;13.662;2024-03-02T01:13:12;99.40;;;50.97;;
25163;SDS011;13440;50.860;13.662;2024-03-02T01:15:37;101.07;;;48.30;;
25163;SDS011;13440;50.860;13.662;2024-03-02T01:18:02;99.90;;;49.27;;
25163;SDS011;13440;50.860;13.662;2024-03-02T01:20:28;101.90;;;50.90;;
25163;SDS011;13440;50.860;13.662;2024-03-02T01:22:53;104.85;;;52.45;;
25163;SDS011;13440;50.860;13.662;2024-03-02T01:25:18;100.00;;;51.97;;
25163;SDS011;13440;50.860;13.662;2024-03-02T01:27:43;102.57;;;51.83;;
25163;SDS011;13440;50.860;13.662;2024-03-02T01:30:09;94.22;;;48.90;;
25163;SDS011;13440;50.860;13.662;2024-03-02T01:32:34;100.35;;;50.30;;
25163;SDS011;13440;50.860;13.662;2024-03-02T01:34:59;104.17;;;51.37;;
25163;SDS011;13440;50.860;13.662;2024-03-02T01:37:24;101.70;;;49.53;;
25163;SDS011;13440;50.860;13.662;2024-03-02T01:39:50;100.45;;;50.80;;
25163;SDS011;13440;50.860;13.662;2024-03-02T01:42:15;97.65;;;49.58;;
25163;SDS011;13440;50.860;13.662;2024-03-02T01:44:40;99.22;;;48.17;;
25163;SDS011;13440;50.860;13.662;2024-03-02T01:47:05;91.73;;;47.27;;
25163;SDS011;13440;50.860;13.662;2024-03-02T01:49:31;91.95;;;48.00;;
25163;SDS011;13440;50.860;13.662;2024-03-02T01:51:59;90.15;;;48.85;;
25163;SDS011;13440;50.860;13.662;2024-03-02T01:54:24;92.60;;;48.28;;
25163;SDS011;13440;50.860;13.662;2024-03-02T01:56:49;95.93;;;48.87;;
25163;SDS011;13440;50.860;13.662;2024-03-02T01:59:14;91.10;;;48.47;;
25163;SDS011;13440;50.860;13.662;2024-03-02T02:01:40;97.90;;;49.63;;
25163;SDS011;13440;50.860;13.662;2024-03-02T02:04:06;100.72;;;49.30;;
25163;SDS011;13440;50.860;13.662;2024-03-02T02:06:32;107.53;;;51.85;;
25163;SDS011;13440;50.860;13.662;2024-03-02T02:08:57;108.55;;;52.50;;
25163;SDS011;13440;50.860;13.662;2024-03-02T02:11:22;106.77;;;49.97;;
25163;SDS011;13440;50.860;13.662;2024-03-02T02:13:48;106.22;;;51.38;;
25163;SDS011;13440;50.860;13.662;2024-03-02T02:16:13;110.37;;;51.77;;
25163;SDS011;13440;50.860;13.662;2024-03-02T02:18:38;114.30;;;52.53;;
25163;SDS011;13440;50.860;13.662;2024-03-02T02:21:03;111.10;;;52.43;;
25163;SDS011;13440;50.860;13.662;2024-03-02T02:23:29;104.40;;;50.78;;
25163;SDS011;13440;50.860;13.662;2024-03-02T02:25:54;111.30;;;51.73;;
25163;SDS011;13440;50.860;13.662;2024-03-02T02:28:19;110.03;;;50.38;;
25163;SDS011;13440;50.860;13.662;2024-03-02T02:30:44;111.20;;;50.10;;
25163;SDS011;13440;50.860;13.662;2024-03-02T02:33:10;114.30;;;52.13;;
25163;SDS011;13440;50.860;13.662;2024-03-02T02:35:35;96.70;;;47.70;;
25163;SDS011;13440;50.860;13.662;2024-03-02T02:38:00;102.97;;;49.45;;
25163;SDS011;13440;50.860;13.662;2024-03-02T02:40:26;104.55;;;49.78;;
25163;SDS011;13440;50.860;13.662;2024-03-02T02:42:51;106.93;;;51.53;;
25163;SDS011;13440;50.860;13.662;2024-03-02T02:45:19;106.90;;;50.30;;
25163;SDS011;13440;50.860;13.662;2024-03-02T02:47:44;112.93;;;51.05;;
25163;SDS011;13440;50.860;13.662;2024-03-02T02:50:10;120.53;;;54.07;;
25163;SDS011;13440;50.860;13.662;2024-03-02T02:52:36;107.80;;;48.17;;
25163;SDS011;13440;50.860;13.662;2024-03-02T02:55:04;107.18;;;49.38;;
25163;SDS011;13440;50.860;13.662;2024-03-02T02:57:29;123.82;;;52.10;;
25163;SDS011;13440;50.860;13.662;2024-03-02T02:59:56;119.55;;;50.33;;
25163;SDS011;13440;50.860;13.662;2024-03-02T03:02:22;114.20;;;50.92;;
25163;SDS011;13440;50.860;13.662;2024-03-02T03:04:47;113.82;;;52.80;;
25163;SDS011;13440;50.860;13.662;2024-03-02T03:07:12;115.97;;;51.45;;
25163;SDS011;13440;50.860;13.662;2024-03-02T03:09:37;116.10;;;52.17;;
25163;SDS011;13440;50.860;13.662;2024-03-02T03:12:04;111.05;;;51.50;;
25163;SDS011;13440;50.860;13.662;2024-03-02T03:14:29;106.88;;;49.20;;
25163;SDS011;13440;50.860;13.662;2024-03-02T03:16:54;108.37;;;50.30;;
25163;SDS011;13440;50.860;13.662;2024-03-02T03:19:19;98.37;;;48.80;;
25163;SDS011;13440;50.860;13.662;2024-03-02T03:21:45;104.43;;;48.80;;
25163;SDS011;13440;50.860;13.662;2024-03-02T03:24:10;105.00;;;48.77;;
25163;SDS011;13440;50.860;13.662;2024-03-02T03:26:35;87.97;;;44.77;;
25163;SDS011;13440;50.860;13.662;2024-03-02T03:29:01;98.43;;;47.58;;
25163;SDS011;13440;50.860;13.662;2024-03-02T03:31:27;92.60;;;45.88;;
25163;SDS011;13440;50.860;13.662;2024-03-02T03:33:52;90.95;;;46.83;;
25163;SDS011;13440;50.860;13.662;2024-03-02T03:36:17;88.07;;;44.33;;
25163;SDS011;13440;50.860;13.662;2024-03-02T03:38:43;87.17;;;44.20;;
25163;SDS011;13440;50.860;13.662;2024-03-02T03:41:08;78.57;;;43.27;;
25163;SDS011;13440;50.860;13.662;2024-03-02T03:43:33;82.57;;;43.10;;
25163;SDS011;13440;50.860;13.662;2024-03-02T03:45:58;75.80;;;38.30;;
25163;SDS011;13440;50.860;13.662;2024-03-02T03:48:23;79.07;;;41.43;;
25163;SDS011;13440;50.860;13.662;2024-03-02T03:50:49;87.53;;;44.72;;
25163;SDS011;13440;50.860;13.662;2024-03-02T03:53:14;84.63;;;43.83;;
25163;SDS011;13440;50.860;13.662;2024-03-02T03:55:40;88.40;;;45.67;;
25163;SDS011;13440;50.860;13.662;2024-03-02T03:58:05;86.63;;;43.40;;
25163;SDS011;13440;50.860;13.662;2024-03-02T04:00:30;83.40;;;43.73;;
25163;SDS011;13440;50.860;13.662;2024-03-02T04:02:55;76.53;;;40.37;;
25163;SDS011;13440;50.860;13.662;2024-03-02T04:05:21;81.65;;;43.45;;
25163;SDS011;13440;50.860;13.662;2024-03-02T04:07:46;81.57;;;41.87;;
25163;SDS011;13440;50.860;13.662;2024-03-02T04:10:12;82.20;;;43.47;;
25163;SDS011;13440;50.860;13.662;2024-03-02T04:12:37;91.10;;;44.53;;
25163;SDS011;13440;50.860;13.662;2024-03-02T04:15:04;81.20;;;42.40;;
25163;SDS011;13440;50.860;13.662;2024-03-02T04:17:32;79.28;;;43.30;;
25163;SDS011;13440;50.860;13.662;2024-03-02T04:19:57;72.25;;;40.78;;
25163;SDS011;13440;50.860;13.662;2024-03-02T04:22:23;75.50;;;40.28;;
25163;SDS011;13440;50.860;13.662;2024-03-02T04:24:48;75.90;;;41.93;;
25163;SDS011;13440;50.860;13.662;2024-03-02T04:27:13;91.40;;;44.23;;
25163;SDS011;13440;50.860;13.662;2024-03-02T04:29:39;82.90;;;44.80;;
25163;SDS011;13440;50.860;13.662;2024-03-02T04:32:04;80.90;;;43.10;;
25163;SDS011;13440;50.860;13.662;2024-03-02T04:34:29;79.90;;;41.65;;
25163;SDS011;13440;50.860;13.662;2024-03-02T04:36:54;69.87;;;39.30;;
25163;SDS011;13440;50.860;13.662;2024-03-02T04:39:20;79.68;;;42.90;;
25163;SDS011;13440;50.860;13.662;2024-03-02T04:41:45;82.40;;;41.87;;
25163;SDS011;13440;50.860;13.662;2024-03-02T04:44:10;79.82;;;42.67;;
25163;SDS011;13440;50.860;13.662;2024-03-02T04:46:35;77.93;;;40.80;;
25163;SDS011;13440;50.860;13.662;2024-03-02T04:49:01;76.33;;;40.17;;
25163;SDS011;13440;50.860;13.662;2024-03-02T04:51:26;83.50;;;42.43;;
25163;SDS011;13440;50.860;13.662;2024-03-02T04:53:51;85.77;;;44.13;;
25163;SDS011;13440;50.860;13.662;2024-03-02T04:56:16;74.93;;;40.93;;
25163;SDS011;13440;50.860;13.662;2024-03-02T04:59:04;81.90;;;43.00;;
25163;SDS011;13440;50.860;13.662;2024-03-02T05:01:29;70.55;;;38.97;;
25163;SDS011;13440;50.860;13.662;2024-03-02T05:03:54;67.57;;;40.73;;
25163;SDS011;13440;50.860;13.662;2024-03-02T05:06:20;69.97;;;38.55;;
25163;SDS011;13440;50.860;13.662;2024-03-02T05:08:45;60.10;;;36.67;;
25163;SDS011;13440;50.860;13.662;2024-03-02T05:11:10;53.58;;;33.00;;
25163;SDS011;13440;50.860;13.662;2024-03-02T05:14:14;55.72;;;34.33;;
25163;SDS011;13440;50.860;13.662;2024-03-02T05:16:39;60.47;;;34.88;;
25163;SDS011;13440;50.860;13.662;2024-03-02T05:19:05;52.58;;;33.38;;
25163;SDS011;13440;50.860;13.662;2024-03-02T05:21:32;56.92;;;34.53;;
25163;SDS011;13440;50.860;13.662;2024-03-02T05:23:57;51.28;;;32.60;;
25163;SDS011;13440;50.860;13.662;2024-03-02T05:26:22;44.93;;;29.17;;
25163;SDS011;13440;50.860;13.662;2024-03-02T05:28:47;43.80;;;28.40;;
25163;SDS011;13440;50.860;13.662;2024-03-02T05:31:14;42.40;;;27.63;;
25163;SDS011;13440;50.860;13.662;2024-03-02T05:33:40;42.65;;;27.83;;
25163;SDS011;13440;50.860;13.662;2024-03-02T05:36:05;38.92;;;26.15;;
25163;SDS011;13440;50.860;13.662;2024-03-02T05:38:31;42.03;;;27.67;;
25163;SDS011;13440;50.860;13.662;2024-03-02T05:40:56;38.83;;;26.47;;
25163;SDS011;13440;50.860;13.662;2024-03-02T05:43:21;40.23;;;25.40;;
25163;SDS011;13440;50.860;13.662;2024-03-02T05:45:46;43.70;;;27.30;;
25163;SDS011;13440;50.860;13.662;2024-03-02T05:48:12;43.77;;;28.43;;
25163;SDS011;13440;50.860;13.662;2024-03-02T05:50:37;45.70;;;29.37;;
25163;SDS011;13440;50.860;13.662;2024-03-02T05:53:02;41.87;;;27.93;;
25163;SDS011;13440;50.860;13.662;2024-03-02T05:55:27;43.15;;;27.80;;
25163;SDS011;13440;50.860;13.662;2024-03-02T05:57:53;43.80;;;27.77;;
25163;SDS011;13440;50.860;13.662;2024-03-02T06:00:47;45.17;;;28.52;;
25163;SDS011;13440;50.860;13.662;2024-03-02T06:03:12;50.15;;;30.08;;
25163;SDS011;13440;50.860;13.662;2024-03-02T06:05:38;46.20;;;28.63;;
25163;SDS011;13440;50.860;13.662;2024-03-02T06:08:03;48.07;;;28.30;;
25163;SDS011;13440;50.860;13.662;2024-03-02T06:10:28;48.60;;;28.80;;
25163;SDS011;13440;50.860;13.662;2024-03-02T06:12:54;46.28;;;28.23;;
25163;SDS011;13440;50.860;13.662;2024-03-02T06:15:19;45.95;;;28.40;;
25163;SDS011;13440;50.860;13.662;2024-03-02T06:17:44;46.63;;;26.83;;
25163;SDS011;13440;50.860;13.662;2024-03-02T06:20:09;46.13;;;27.23;;
25163;SDS011;13440;50.860;13.662;2024-03-02T06:22:35;38.60;;;24.20;;
25163;SDS011;13440;50.860;13.662;2024-03-02T06:25:00;45.20;;;26.25;;
25163;SDS011;13440;50.860;13.662;2024-03-02T06:27:25;45.77;;;27.30;;
25163;SDS011;13440;50.860;13.662;2024-03-02T06:29:50;80.77;;;46.53;;
25163;SDS011;13440;50.860;13.662;2024-03-02T06:32:16;43.13;;;24.88;;
25163;SDS011;13440;50.860;13.662;2024-03-02T06:34:41;44.88;;;25.10;;
25163;SDS011;13440;50.860;13.662;2024-03-02T06:37:07;46.65;;;26.27;;
25163;SDS011;13440;50.860;13.662;2024-03-02T06:39:32;42.57;;;25.73;;
25163;SDS011;13440;50.860;13.662;2024-03-02T06:41:59;45.47;;;26.30;;
25163;SDS011;13440;50.860;13.662;2024-03-02T06:44:24;48.30;;;28.37;;
25163;SDS011;13440;50.860;13.662;2024-03-02T06:46:49;47.13;;;26.97;;
25163;SDS011;13440;50.860;13.662;2024-03-02T06:49:14;41.83;;;25.47;;
25163;SDS011;13440;50.860;13.662;2024-03-02T06:51:39;42.43;;;25.70;;
25163;SDS011;13440;50.860;13.662;2024-03-02T06:54:06;44.45;;;26.23;;
25163;SDS011;13440;50.860;13.662;2024-03-02T06:56:31;43.03;;;25.27;;
25163;SDS011;13440;50.860;13.662;2024-03-02T06:58:58;41.22;;;26.27;;
25163;SDS011;13440;50.860;13.662;2024-03-02T07:01:23;42.37;;;25.63;;
25163;SDS011;13440;50.860;13.662;2024-03-02T07:03:51;45.10;;;26.92;;
25163;SDS011;13440;50.860;13.662;2024-03-02T07:06:16;41.90;;;26.42;;
25163;SDS011;13440;50.860;13.662;2024-03-02T07:08:41;44.30;;;26.55;;
25163;SDS011;13440;50.860;13.662;2024-03-02T07:11:06;39.73;;;23.37;;
25163;SDS011;13440;50.860;13.662;2024-03-02T07:13:32;45.23;;;28.20;;
25163;SDS011;13440;50.860;13.662;2024-03-02T07:15:57;43.10;;;27.07;;
25163;SDS011;13440;50.860;13.662;2024-03-02T07:18:29;42.60;;;26.00;;
25163;SDS011;13440;50.860;13.662;2024-03-02T07:20:54;38.30;;;22.50;;
25163;SDS011;13440;50.860;13.662;2024-03-02T07:23:20;41.03;;;25.08;;
25163;SDS011;13440;50.860;13.662;2024-03-02T07:25:48;40.38;;;25.17;;
25163;SDS011;13440;50.860;13.662;2024-03-02T07:28:13;40.70;;;26.38;;
25163;SDS011;13440;50.860;13.662;2024-03-02T07:30:39;48.25;;;29.52;;
25163;SDS011;13440;50.860;13.662;2024-03-02T07:33:05;41.38;;;25.88;;
25163;SDS011;13440;50.860;13.662;2024-03-02T07:35:30;39.83;;;24.30;;
25163;SDS011;13440;50.860;13.662;2024-03-02T07:37:56;39.33;;;24.70;;
25163;SDS011;13440;50.860;13.662;2024-03-02T07:40:22;38.72;;;24.10;;
25163;SDS011;13440;50.860;13.662;2024-03-02T07:42:47;38.67;;;25.02;;
25163;SDS011;13440;50.860;13.662;2024-03-02T07:45:12;40.17;;;23.40;;
25163;SDS011;13440;50.860;13.662;2024-03-02T07:47:37;33.88;;;21.67;;
25163;SDS011;13440;50.860;13.662;2024-03-02T07:50:03;34.00;;;21.83;;
25163;SDS011;13440;50.860;13.662;2024-03-02T07:52:31;35.95;;;22.25;;
25163;SDS011;13440;50.860;13.662;2024-03-02T07:54:56;36.30;;;22.83;;
25163;SDS011;13440;50.860;13.662;2024-03-02T07:57:21;36.38;;;22.95;;
25163;SDS011;13440;50.860;13.662;2024-03-02T07:59:46;35.65;;;22.10;;
25163;SDS011;13440;50.860;13.662;2024-03-02T08:02:12;37.08;;;24.10;;
25163;SDS011;13440;50.860;13.662;2024-03-02T08:04:37;36.50;;;23.70;;
25163;SDS011;13440;50.860;13.662;2024-03-02T08:07:03;37.55;;;23.60;;
25163;SDS011;13440;50.860;13.662;2024-03-02T08:09:28;35.08;;;23.00;;
25163;SDS011;13440;50.860;13.662;2024-03-02T08:11:53;34.00;;;22.37;;
25163;SDS011;13440;50.860;13.662;2024-03-02T08:14:19;32.60;;;20.80;;
25163;SDS011;13440;50.860;13.662;2024-03-02T08:16:44;30.73;;;20.27;;
25163;SDS011;13440;50.860;13.662;2024-03-02T08:19:10;26.67;;;18.05;;
25163;SDS011;13440;50.860;13.662;2024-03-02T08:21:35;26.52;;;17.38;;
25163;SDS011;13440;50.860;13.662;2024-03-02T08:24:01;40.70;;;25.20;;
25163;SDS011;13440;50.860;13.662;2024-03-02T08:26:27;37.22;;;22.70;;
25163;SDS011;13440;50.860;13.662;2024-03-02T08:28:54;27.30;;;16.27;;
25163;SDS011;13440;50.860;13.662;2024-03-02T08:31:20;26.98;;;18.15;;
25163;SDS011;13440;50.860;13.662;2024-03-02T08:33:45;28.03;;;20.23;;
25163;SDS011;13440;50.860;13.662;2024-03-02T08:36:10;28.45;;;18.13;;
25163;SDS011;13440;50.860;13.662;2024-03-02T08:38:36;23.95;;;17.42;;
25163;SDS011;13440;50.860;13.662;2024-03-02T08:41:01;18.42;;;13.68;;
25163;SDS011;13440;50.860;13.662;2024-03-02T08:43:26;19.33;;;13.17;;
25163;SDS011;13440;50.860;13.662;2024-03-02T08:45:51;21.13;;;15.43;;
25163;SDS011;13440;50.860;13.662;2024-03-02T08:48:17;20.60;;;14.63;;
25163;SDS011;13440;50.860;13.662;2024-03-02T08:50:43;21.15;;;15.07;;
25163;SDS011;13440;50.860;13.662;2024-03-02T08:53:08;22.45;;;15.95;;
25163;SDS011;13440;50.860;13.662;2024-03-02T08:55:34;18.10;;;14.38;;
25163;SDS011;13440;50.860;13.662;2024-03-02T08:57:59;62.83;;;39.63;;
25163;SDS011;13440;50.860;13.662;2024-03-02T09:00:24;31.65;;;20.88;;
25163;SDS011;13440;50.860;13.662;2024-03-02T09:02:51;17.40;;;13.07;;
25163;SDS011;13440;50.860;13.662;2024-03-02T09:05:16;17.47;;;13.50;;
25163;SDS011;13440;50.860;13.662;2024-03-02T09:07:41;17.13;;;12.73;;
25163;SDS011;13440;50.860;13.662;2024-03-02T09:10:07;16.95;;;12.13;;
25163;SDS011;13440;50.860;13.662;2024-03-02T09:12:32;16.67;;;11.35;;
25163;SDS011;13440;50.860;13.662;2024-03-02T09:14:58;15.83;;;11.10;;
25163;SDS011;13440;50.860;13.662;2024-03-02T09:17:23;13.90;;;11.07;;
25163;SDS011;13440;50.860;13.662;2024-03-02T09:19:49;17.25;;;13.68;;
25163;SDS011;13440;50.860;13.662;2024-03-02T09:22:17;23.17;;;15.15;;
25163;SDS011;13440;50.860;13.662;2024-03-02T09:24:43;14.70;;;11.43;;
25163;SDS011;13440;50.860;13.662;2024-03-02T09:27:08;12.63;;;9.67;;
25163;SDS011;13440;50.860;13.662;2024-03-02T09:29:33;13.30;;;9.60;;
25163;SDS011;13440;50.860;13.662;2024-03-02T09:31:58;12.67;;;9.40;;
25163;SDS011;13440;50.860;13.662;2024-03-02T09:34:23;12.43;;;10.17;;
25163;SDS011;13440;50.860;13.662;2024-03-02T09:36:49;17.30;;;12.80;;
25163;SDS011;13440;50.860;13.662;2024-03-02T09:39:15;19.20;;;17.17;;
25163;SDS011;13440;50.860;13.662;2024-03-02T09:41:42;16.15;;;12.70;;
25163;SDS011;13440;50.860;13.662;2024-03-02T09:44:07;19.87;;;15.80;;
25163;SDS011;13440;50.860;13.662;2024-03-02T09:46:33;23.70;;;17.45;;
25163;SDS011;13440;50.860;13.662;2024-03-02T09:48:58;16.60;;;10.43;;
25163;SDS011;13440;50.860;13.662;2024-03-02T09:51:24;19.08;;;11.75;;
25163;SDS011;13440;50.860;13.662;2024-03-02T09:53:49;21.17;;;12.32;;
25163;SDS011;13440;50.860;13.662;2024-03-02T09:56:15;17.30;;;11.65;;
25163;SDS011;13440;50.860;13.662;2024-03-02T09:58:41;19.77;;;13.13;;
25163;SDS011;13440;50.860;13.662;2024-03-02T10:01:06;22.45;;;14.13;;
25163;SDS011;13440;50.860;13.662;2024-03-02T10:03:31;21.17;;;13.82;;
25163;SDS011;13440;50.860;13.662;2024-03-02T10:06:17;21.02;;;13.27;;
25163;SDS011;13440;50.860;13.662;2024-03-02T10:08:43;20.38;;;13.95;;
25163;SDS011;13440;50.860;13.662;2024-03-02T10:11:09;27.08;;;18.00;;
25163;SDS011;13440;50.860;13.662;2024-03-02T10:13:34;23.53;;;13.77;;
25163;SDS011;13440;50.860;13.662;2024-03-02T10:15:59;25.65;;;15.88;;
25163;SDS011;13440;50.860;13.662;2024-03-02T10:18:36;28.42;;;15.52;;
25163;SDS011;13440;50.860;13.662;2024-03-02T10:21:14;25.43;;;15.53;;
25163;SDS011;13440;50.860;13.662;2024-03-02T10:23:40;27.73;;;15.90;;
25163;SDS011;13440;50.860;13.662;2024-03-02T10:26:16;27.77;;;16.93;;
25163;SDS011;13440;50.860;13.662;2024-03-02T10:28:46;33.00;;;18.88;;
25163;SDS011;13440;50.860;13.662;2024-03-02T10:31:11;33.22;;;19.55;;
25163;SDS011;13440;50.860;13.662;2024-03-02T10:33:37;29.92;;;19.55;;
25163;SDS011;13440;50.860;13.662;2024-03-02T10:36:03;29.20;;;18.83;;
25163;SDS011;13440;50.860;13.662;2024-03-02T10:38:28;28.98;;;18.45;;
25163;SDS011;13440;50.860;13.662;2024-03-02T10:40:54;34.78;;;20.13;;
25163;SDS011;13440;50.860;13.662;2024-03-02T10:43:21;32.60;;;19.40;;
25163;SDS011;13440;50.860;13.662;2024-03-02T10:45:47;28.45;;;18.27;;
25163;SDS011;13440;50.860;13.662;2024-03-02T10:48:14;31.25;;;19.33;;
25163;SDS011;13440;50.860;13.662;2024-03-02T10:50:39;26.75;;;17.90;;
25163;SDS011;13440;50.860;13.662;2024-03-02T10:53:04;27.52;;;16.75;;
25163;SDS011;13440;50.860;13.662;2024-03-02T10:55:30;24.13;;;16.10;;
25163;SDS011;13440;50.860;13.662;2024-03-02T10:57:56;24.10;;;15.55;;
25163;SDS011;13440;50.860;13.662;2024-03-02T11:00:26;25.63;;;16.73;;
25163;SDS011;13440;50.860;13.662;2024-03-02T11:03:06;23.85;;;16.13;;
25163;SDS011;13440;50.860;13.662;2024-03-02T11:05:37;21.52;;;15.38;;
25163;SDS011;13440;50.860;13.662;2024-03-02T11:08:07;27.35;;;17.00;;
25163;SDS011;13440;50.860;13.662;2024-03-02T11:13:11;24.98;;;15.48;;
25163;SDS011;13440;50.860;13.662;2024-03-02T11:15:36;24.92;;;15.48;;
25163;SDS011;13440;50.860;13.662;2024-03-02T11:18:03;20.48;;;14.35;;
25163;SDS011;13440;50.860;13.662;2024-03-02T11:20:30;20.63;;;14.40;;
25163;SDS011;13440;50.860;13.662;2024-03-02T11:22:55;24.95;;;16.15;;
25163;SDS011;13440;50.860;13.662;2024-03-02T11:25:24;26.50;;;18.50;;
25163;SDS011;13440;50.860;13.662;2024-03-02T11:33:05;21.92;;;15.20;;
25163;SDS011;13440;50.860;13.662;2024-03-02T11:35:32;23.60;;;15.95;;
25163;SDS011;13440;50.860;13.662;2024-03-02T11:37:58;20.92;;;13.45;;
25163;SDS011;13440;50.860;13.662;2024-03-02T11:40:27;15.63;;;12.07;;
25163;SDS011;13440;50.860;13.662;2024-03-02T11:42:53;19.13;;;12.55;;
25163;SDS011;13440;50.860;13.662;2024-03-02T11:45:22;18.53;;;12.93;;
25163;SDS011;13440;50.860;13.662;2024-03-02T11:47:50;19.08;;;12.15;;
25163;SDS011;13440;50.860;13.662;2024-03-02T11:50:15;19.98;;;13.13;;
25163;SDS011;13440;50.860;13.662;2024-03-02T11:52:40;19.37;;;13.80;;
25163;SDS011;13440;50.860;13.662;2024-03-02T11:55:06;16.73;;;11.98;;
25163;SDS011;13440;50.860;13.662;2024-03-02T11:57:32;15.95;;;11.88;;
25163;SDS011;13440;50.860;13.662;2024-03-02T11:59:58;17.17;;;12.80;;
25163;SDS011;13440;50.860;13.662;2024-03-02T12:02:24;17.88;;;11.65;;
25163;SDS011;13440;50.860;13.662;2024-03-02T12:04:49;17.00;;;11.40;;
25163;SDS011;13440;50.860;13.662;2024-03-02T12:07:21;16.13;;;10.93;;
25163;SDS011;13440;50.860;13.662;2024-03-02T12:09:58;14.68;;;10.40;;
25163;SDS011;13440;50.860;13.662;2024-03-02T12:12:24;16.27;;;10.93;;
25163;SDS011;13440;50.860;13.662;2024-03-02T12:14:50;19.20;;;11.27;;
25163;SDS011;13440;50.860;13.662;2024-03-02T12:17:16;18.52;;;12.10;;
25163;SDS011;13440;50.860;13.662;2024-03-02T12:19:41;19.13;;;12.47;;
25163;SDS011;13440;50.860;13.662;2024-03-02T12:22:06;17.00;;;10.63;;
25163;SDS011;13440;50.860;13.662;2024-03-02T12:24:31;22.40;;;12.60;;
25163;SDS011;13440;50.860;13.662;2024-03-02T12:26:57;21.65;;;13.90;;
25163;SDS011;13440;50.860;13.662;2024-03-02T12:29:22;25.15;;;14.20;;
25163;SDS011;13440;50.860;13.662;2024-03-02T12:31:49;23.42;;;13.30;;
25163;SDS011;13440;50.860;13.662;2024-03-02T12:34:15;21.35;;;12.50;;
25163;SDS011;13440;50.860;13.662;2024-03-02T12:36:40;19.83;;;11.88;;
25163;SDS011;13440;50.860;13.662;2024-03-02T12:39:07;22.63;;;12.35;;
25163;SDS011;13440;50.860;13.662;2024-03-02T12:41:35;21.55;;;12.43;;
25163;SDS011;13440;50.860;13.662;2024-03-02T12:44:00;19.88;;;11.77;;
25163;SDS011;13440;50.860;13.662;2024-03-02T12:46:25;19.93;;;12.50;;
25163;SDS011;13440;50.860;13.662;2024-03-02T12:48:51;22.58;;;12.00;;
25163;SDS011;13440;50.860;13.662;2024-03-02T12:51:16;22.05;;;11.85;;
25163;SDS011;13440;50.860;13.662;2024-03-02T12:53:41;21.43;;;14.00;;
25163;SDS011;13440;50.860;13.662;2024-03-02T12:56:07;24.85;;;15.27;;
25163;SDS011;13440;50.860;13.662;2024-03-02T12:58:38;20.13;;;12.50;;
25163;SDS011;13440;50.860;13.662;2024-03-02T13:01:07;23.10;;;13.32;;
25163;SDS011;13440;50.860;13.662;2024-03-02T13:03:40;20.08;;;12.23;;
25163;SDS011;13440;50.860;13.662;2024-03-02T13:06:06;24.70;;;12.77;;
25163;SDS011;13440;50.860;13.662;2024-03-02T13:08:31;23.00;;;12.77;;
25163;SDS011;13440;50.860;13.662;2024-03-02T13:10:57;32.70;;;14.60;;
25163;SDS011;13440;50.860;13.662;2024-03-02T13:13:22;27.17;;;14.30;;
25163;SDS011;13440;50.860;13.662;2024-03-02T13:15:48;35.25;;;23.25;;
25163;SDS011;13440;50.860;13.662;2024-03-02T13:18:13;23.80;;;14.10;;
25163;SDS011;13440;50.860;13.662;2024-03-02T13:20:38;25.67;;;13.50;;
25163;SDS011;13440;50.860;13.662;2024-03-02T13:23:05;21.70;;;14.38;;
25163;SDS011;13440;50.860;13.662;2024-03-02T13:25:30;25.15;;;14.07;;
25163;SDS011;13440;50.860;13.662;2024-03-02T13:27:56;26.70;;;14.52;;
25163;SDS011;13440;50.860;13.662;2024-03-02T13:30:22;24.20;;;14.77;;
25163;SDS011;13440;50.860;13.662;2024-03-02T13:32:47;25.43;;;15.13;;
25163;SDS011;13440;50.860;13.662;2024-03-02T13:35:12;24.53;;;16.13;;
25163;SDS011;13440;50.860;13.662;2024-03-02T13:37:37;26.40;;;15.68;;
25163;SDS011;13440;50.860;13.662;2024-03-02T13:40:03;29.00;;;15.40;;
25163;SDS011;13440;50.860;13.662;2024-03-02T13:42:29;27.95;;;15.60;;
25163;SDS011;13440;50.860;13.662;2024-03-02T13:44:55;26.75;;;16.00;;
25163;SDS011;13440;50.860;13.662;2024-03-02T13:47:20;27.65;;;16.58;;
25163;SDS011;13440;50.860;13.662;2024-03-02T13:49:46;28.52;;;16.63;;
25163;SDS011;13440;50.860;13.662;2024-03-02T13:52:13;29.50;;;16.80;;
25163;SDS011;13440;50.860;13.662;2024-03-02T13:54:46;125.75;;;72.88;;
25163;SDS011;13440;50.860;13.662;2024-03-02T13:57:11;30.20;;;17.75;;
25163;SDS011;13440;50.860;13.662;2024-03-02T13:59:37;29.98;;;17.50;;
25163;SDS011;13440;50.860;13.662;2024-03-02T14:02:02;29.90;;;18.13;;
25163;SDS011;13440;50.860;13.662;2024-03-02T14:04:31;35.50;;;19.25;;
25163;SDS011;13440;50.860;13.662;2024-03-02T14:06:57;30.67;;;18.20;;
25163;SDS011;13440;50.860;13.662;2024-03-02T14:09:22;30.05;;;18.77;;
25163;SDS011;13440;50.860;13.662;2024-03-02T14:11:49;32.33;;;19.17;;